Time;durP1;ratioP1;P1;durP2;ratioP2;P2;SDS_P1;SDS_P2;PMS_P1;PMS_P2;Temp;Humidity;BMP_temperature;BMP_pressure;BME280_temperature;BME280_humidity;BME280_pressure;Samples;Min_cycle;Max_cycle;Signal;HPM_P1;HPM_P2
2024/02/24 00:02:21;;;;;;;6.13;2.70;;;;;;;-146.29;100.00;59205.81;5031302;28;20203;-69
2024/02/24 00:04:47;;;;;;;3.93;2.70;;;;;;;-146.29;100.00;59205.81;5026067;28;20251;-70
2024/02/24 00:07:12;;;;;;;6.70;2.97;;;;;;;-146.29;100.00;59205.81;5026491;28;20287;-69
2024/02/24 00:09:37;;;;;;;6.50;2.50;;;;;;;-146.29;100.00;59205.81;5026416;28;20198;-69
2024/02/24 00:12:04;;;;;;;5.10;2.90;;;;;;;-146.29;100.00;59205.81;5026814;28;20269;-71
2024/02/24 00:14:30;;;;;;;6.60;3.10;;;;;;;-146.29;100.00;59205.81;5032373;28;20215;-70
2024/02/24 00:16:55;;;;;;;3.80;2.57;;;;;;;-146.29;100.00;59205.81;5028176;28;20891;-69
2024/02/24 00:19:21;;;;;;;4.50;2.70;;;;;;;-146.29;100.00;59205.81;5028814;28;20200;-71
2024/02/24 00:21:47;;;;;;;4.27;2.60;;;;;;;-146.29;100.00;59205.81;5033962;28;20591;-71
2024/02/24 00:24:12;;;;;;;5.13;2.60;;;;;;;-146.29;100.00;59205.81;5026894;28;20196;-70
2024/02/24 00:26:38;;;;;;;5.30;2.80;;;;;;;-146.29;100.00;59205.81;5032844;28;20695;-69
2024/02/24 00:29:03;;;;;;;5.90;2.33;;;;;;;-146.29;100.00;59205.81;5028631;28;20183;-71
2024/02/24 00:31:28;;;;;;;5.07;2.47;;;;;;;-146.29;100.00;59205.81;5034815;28;20201;-69
2024/02/24 00:33:54;;;;;;;4.20;2.67;;;;;;;-146.29;100.00;59205.81;5026597;28;20277;-70
2024/02/24 00:36:19;;;;;;;6.53;2.37;;;;;;;-146.29;100.00;59205.81;5024262;28;20199;-71
2024/02/24 00:38:45;;;;;;;6.60;2.93;;;;;;;-146.29;100.00;59205.81;5031630;28;20217;-70
2024/02/24 00:41:10;;;;;;;5.93;2.40;;;;;;;-146.29;100.00;59205.81;5027033;28;20191;-69
2024/02/24 00:43:36;;;;;;;4.80;2.63;;;;;;;-146.29;100.00;59205.81;5031071;28;20203;-72
2024/02/24 00:46:01;;;;;;;5.37;2.80;;;;;;;-146.29;100.00;59205.81;5032973;28;20184;-72
2024/02/24 00:48:28;;;;;;;7.47;3.00;;;;;;;-146.29;100.00;59205.81;5032325;28;20633;-70
2024/02/24 00:50:53;;;;;;;4.60;2.67;;;;;;;-146.29;100.00;59205.81;5026831;28;20187;-70
2024/02/24 00:53:19;;;;;;;4.53;2.70;;;;;;;-146.29;100.00;59205.81;5049597;28;21021;-70
2024/02/24 00:55:44;;;;;;;4.50;2.80;;;;;;;-146.29;100.00;59205.81;5032570;28;20246;-69
2024/02/24 00:58:10;;;;;;;4.53;2.20;;;;;;;-146.29;100.00;59205.81;5024868;28;20282;-71
2024/02/24 01:00:35;;;;;;;6.40;3.10;;;;;;;-146.29;100.00;59205.81;5044602;28;20190;-70
2024/02/24 01:03:00;;;;;;;4.20;2.53;;;;;;;-146.29;100.00;59205.81;5026486;28;20718;-69
2024/02/24 01:05:26;;;;;;;6.67;2.93;;;;;;;-146.29;100.00;59205.81;5030083;28;20191;-70
2024/02/24 01:07:55;;;;;;;3.13;2.40;;;;;;;-146.29;100.00;59205.81;5036310;28;20278;-69
2024/02/24 01:10:22;;;;;;;3.07;2.50;;;;;;;-146.29;100.00;59205.81;5030069;28;20195;-71
2024/02/24 01:12:47;;;;;;;5.00;2.63;;;;;;;-146.29;100.00;59205.81;5031758;28;20458;-69
2024/02/24 01:15:13;;;;;;;4.57;2.43;;;;;;;-146.29;100.00;59205.81;5032149;28;20472;-69
2024/02/24 01:17:38;;;;;;;4.10;2.10;;;;;;;-146.29;100.00;59205.81;5029694;28;20212;-69
2024/02/24 01:20:04;;;;;;;6.27;2.67;;;;;;;-146.29;100.00;59205.81;5036510;28;20222;-70
2024/02/24 01:22:29;;;;;;;5.57;2.30;;;;;;;-146.29;100.00;59205.81;5030906;28;20180;-70
2024/02/24 01:24:55;;;;;;;4.20;2.30;;;;;;;-146.29;100.00;59205.81;5034901;28;20188;-72
2024/02/24 01:27:21;;;;;;;2.97;2.30;;;;;;;-146.29;100.00;59205.81;5021766;28;20215;-70
2024/02/24 01:29:46;;;;;;;3.20;2.20;;;;;;;-146.29;100.00;59205.81;5030612;28;20249;-70
2024/02/24 01:32:12;;;;;;;3.10;2.30;;;;;;;-146.29;100.00;59205.81;5032858;28;20426;-68
2024/02/24 01:34:37;;;;;;;4.57;2.73;;;;;;;-146.29;100.00;59205.81;5024150;28;20291;-71
2024/02/24 01:37:03;;;;;;;5.13;2.07;;;;;;;-146.29;100.00;59205.81;5028792;28;20855;-72
2024/02/24 01:39:31;;;;;;;5.97;2.97;;;;;;;-146.29;100.00;59205.81;5031672;28;20555;-70
2024/02/24 01:41:56;;;;;;;6.17;2.73;;;;;;;-146.29;100.00;59205.81;5030296;28;20262;-70
2024/02/24 01:44:22;;;;;;;3.53;2.33;;;;;;;-146.29;100.00;59205.81;5033726;28;20492;-70
2024/02/24 01:46:48;;;;;;;3.40;2.00;;;;;;;-146.29;100.00;59205.81;5031354;28;20184;-72
2024/02/24 01:49:14;;;;;;;5.50;2.20;;;;;;;-146.29;100.00;59205.81;5031933;28;20240;-69
2024/02/24 01:51:40;;;;;;;3.20;2.13;;;;;;;-146.29;100.00;59205.81;5037381;28;20434;-70
2024/02/24 01:54:06;;;;;;;2.70;1.73;;;;;;;-146.29;100.00;59205.81;5036970;28;20477;-70
2024/02/24 01:56:32;;;;;;;7.47;2.70;;;;;;;-146.29;100.00;59205.81;5028171;28;20183;-69
2024/02/24 01:58:58;;;;;;;4.77;2.00;;;;;;;-146.29;100.00;59205.81;5028920;28;20211;-71
2024/02/24 02:01:23;;;;;;;2.87;2.03;;;;;;;-146.29;100.00;59205.81;5027587;28;20493;-69
2024/02/24 02:03:50;;;;;;;3.50;2.30;;;;;;;-146.29;100.00;59205.81;5030525;28;20695;-68
2024/02/24 02:06:15;;;;;;;7.97;2.67;;;;;;;-146.29;100.00;59205.81;5037192;28;20194;-70
2024/02/24 02:08:41;;;;;;;8.00;2.30;;;;;;;-146.29;100.00;59205.81;5036800;28;20419;-70
2024/02/24 02:11:09;;;;;;;3.50;1.87;;;;;;;-146.29;100.00;59205.81;5038939;28;20936;-70
2024/02/24 02:13:34;;;;;;;3.03;1.93;;;;;;;-146.29;100.00;59205.81;5033797;28;20223;-69
2024/02/24 02:16:00;;;;;;;4.43;2.13;;;;;;;-146.29;100.00;59205.81;5033945;28;20415;-70
2024/02/24 02:18:26;;;;;;;5.13;1.73;;;;;;;-146.29;100.00;59205.81;5034698;28;20179;-69
2024/02/24 02:20:51;;;;;;;4.27;2.00;;;;;;;-146.29;100.00;59205.81;5029376;28;20572;-70
2024/02/24 02:23:17;;;;;;;2.67;1.83;;;;;;;-146.29;100.00;59205.81;5027840;28;20208;-70
2024/02/24 02:25:42;;;;;;;4.40;2.70;;;;;;;-146.29;100.00;59205.81;5016213;28;20852;-70
2024/02/24 02:28:08;;;;;;;8.70;2.27;;;;;;;-146.29;100.00;59205.81;5028266;28;20722;-71
2024/02/24 02:30:33;;;;;;;3.50;1.90;;;;;;;-146.29;100.00;59205.81;5028297;28;20218;-69
2024/02/24 02:32:59;;;;;;;5.73;2.00;;;;;;;-146.29;100.00;59205.81;5041028;28;20285;-69
2024/02/24 02:35:29;;;;;;;3.80;1.90;;;;;;;-146.29;100.00;59205.81;5031215;28;20246;-71
2024/02/24 02:37:55;;;;;;;2.77;1.67;;;;;;;-146.29;100.00;59205.81;5032365;28;20225;-69
2024/02/24 02:40:20;;;;;;;2.70;1.43;;;;;;;-146.29;100.00;59205.81;5030611;28;20427;-69
2024/02/24 02:42:46;;;;;;;2.70;1.47;;;;;;;-146.29;100.00;59205.81;5043009;28;20574;-69
2024/02/24 02:45:11;;;;;;;2.67;1.60;;;;;;;-146.29;100.00;59205.81;5035417;28;20188;-70
2024/02/24 02:47:37;;;;;;;2.13;1.20;;;;;;;-146.29;100.00;59205.81;5035114;28;20187;-69
2024/02/24 02:50:07;;;;;;;2.33;1.80;;;;;;;-146.29;100.00;59205.81;5044004;28;20276;-69
2024/02/24 02:52:33;;;;;;;2.53;1.40;;;;;;;-146.29;100.00;59205.81;5024457;28;20195;-71
2024/02/24 02:54:58;;;;;;;3.50;1.50;;;;;;;-146.29;100.00;59205.81;5027525;28;20573;-71
2024/02/24 02:57:24;;;;;;;2.37;1.37;;;;;;;-146.29;100.00;59205.81;5024274;28;20237;-70
2024/02/24 02:59:50;;;;;;;2.07;1.43;;;;;;;-146.29;100.00;59205.81;5031841;28;20645;-70
2024/02/24 03:02:15;;;;;;;2.60;1.27;;;;;;;-146.29;100.00;59205.81;5029096;28;20202;-68
2024/02/24 03:04:41;;;;;;;1.80;1.33;;;;;;;-146.29;100.00;59205.81;5033518;28;20454;-70
2024/02/24 03:07:06;;;;;;;2.03;1.03;;;;;;;-146.29;100.00;59205.81;5032014;28;20194;-71
2024/02/24 03:09:31;;;;;;;2.10;1.33;;;;;;;-146.29;100.00;59205.81;5030121;28;20245;-69
2024/02/24 03:11:57;;;;;;;3.30;1.40;;;;;;;-146.29;100.00;59205.81;5028318;28;20183;-70
2024/02/24 03:14:22;;;;;;;1.30;0.80;;;;;;;-146.29;100.00;59205.81;5033230;28;20905;-70
2024/02/24 03:16:48;;;;;;;2.67;1.20;;;;;;;-146.29;100.00;59205.81;5029392;28;20196;-70
2024/02/24 03:19:14;;;;;;;1.30;0.90;;;;;;;-146.29;100.00;59205.81;5035115;28;20537;-69
2024/02/24 03:21:40;;;;;;;1.57;1.30;;;;;;;-146.29;100.00;59205.81;5031901;28;20430;-72
2024/02/24 03:24:06;;;;;;;3.10;1.37;;;;;;;-146.29;100.00;59205.81;5034236;28;20235;-70
2024/02/24 03:26:31;;;;;;;2.27;1.10;;;;;;;-146.29;100.00;59205.81;5027433;28;20188;-69
2024/02/24 03:28:56;;;;;;;1.90;1.00;;;;;;;-146.29;100.00;59205.81;5027330;28;20612;-70
2024/02/24 03:31:22;;;;;;;1.50;1.10;;;;;;;-146.29;100.00;59205.81;5029013;28;20195;-69
2024/02/24 03:33:47;;;;;;;1.00;0.90;;;;;;;-146.29;100.00;59205.81;5027113;28;20661;-69
2024/02/24 03:36:14;;;;;;;1.87;0.90;;;;;;;-146.29;100.00;59205.81;5026536;28;20369;-70
2024/02/24 03:38:40;;;;;;;5.10;1.40;;;;;;;-146.29;100.00;59205.81;5029360;28;20271;-71
2024/02/24 03:41:07;;;;;;;1.57;1.00;;;;;;;-146.29;100.00;59205.81;5026877;28;20434;-69
2024/02/24 03:43:33;;;;;;;1.37;0.97;;;;;;;-146.29;100.00;59205.81;5032968;28;20438;-71
2024/02/24 03:45:58;;;;;;;1.30;1.10;;;;;;;-146.29;100.00;59205.81;5038164;28;20436;-70
2024/02/24 03:48:24;;;;;;;1.20;1.10;;;;;;;-146.29;100.00;59205.81;5027922;28;20186;-70
2024/02/24 03:50:49;;;;;;;4.73;1.67;;;;;;;-146.29;100.00;59205.81;5027529;28;20338;-70
2024/02/24 03:53:15;;;;;;;1.83;1.17;;;;;;;-146.29;100.00;59205.81;5031398;28;20318;-68
2024/02/24 03:55:40;;;;;;;1.93;1.10;;;;;;;-146.29;100.00;59205.81;5029863;28;20183;-68
2024/02/24 03:58:07;;;;;;;1.67;1.27;;;;;;;-146.29;100.00;59205.81;5023216;28;20199;-70
2024/02/24 04:00:34;;;;;;;1.20;1.00;;;;;;;-146.29;100.00;59205.81;5026347;28;20253;-69
2024/02/24 04:03:01;;;;;;;3.20;1.03;;;;;;;-146.29;100.00;59205.81;5033088;28;20546;-68
2024/02/24 04:05:26;;;;;;;1.97;1.53;;;;;;;-146.29;100.00;59205.81;5028704;28;20488;-70
2024/02/24 04:07:51;;;;;;;1.57;1.40;;;;;;;-146.29;100.00;59205.81;5031181;28;20427;-69
2024/02/24 04:10:17;;;;;;;3.63;1.23;;;;;;;-146.29;100.00;59205.81;5024987;28;20192;-70
2024/02/24 04:12:42;;;;;;;2.67;1.20;;;;;;;-146.29;100.00;59205.81;5029940;28;20191;-69
2024/02/24 04:15:08;;;;;;;1.70;1.20;;;;;;;-146.29;100.00;59205.81;5029668;28;20199;-71
2024/02/24 04:17:34;;;;;;;1.50;1.20;;;;;;;-146.29;100.00;59205.81;5037403;28;20318;-70
2024/02/24 04:19:59;;;;;;;3.17;1.23;;;;;;;-146.29;100.00;59205.81;5046648;28;20184;-70
2024/02/24 04:22:25;;;;;;;2.30;0.93;;;;;;;-146.29;100.00;59205.81;5041807;28;20558;-71
2024/02/24 04:24:51;;;;;;;1.57;1.20;;;;;;;-146.29;100.00;59205.81;5054041;28;20199;-70
2024/02/24 04:27:17;;;;;;;3.00;1.17;;;;;;;-146.29;100.00;59205.81;5019450;28;20203;-69
2024/02/24 04:29:42;;;;;;;1.40;1.20;;;;;;;-146.29;100.00;59205.81;5047541;28;20521;-70
2024/02/24 04:32:08;;;;;;;2.50;1.30;;;;;;;-146.29;100.00;59205.81;5050174;28;20194;-69
2024/02/24 04:34:36;;;;;;;1.00;0.90;;;;;;;-146.29;100.00;59205.81;5050449;28;20613;-70
2024/02/24 04:37:02;;;;;;;1.67;1.13;;;;;;;-146.29;100.00;59205.81;5043262;28;20271;-69
2024/02/24 04:39:27;;;;;;;1.90;0.93;;;;;;;-146.29;100.00;59205.81;5047691;28;20419;-70
2024/02/24 04:41:53;;;;;;;1.00;0.80;;;;;;;-146.29;100.00;59205.81;5041274;28;20176;-71
2024/02/24 04:44:18;;;;;;;1.50;1.13;;;;;;;-146.29;100.00;59205.81;5049515;28;20210;-69
2024/02/24 04:46:44;;;;;;;1.57;1.20;;;;;;;-146.29;100.00;59205.81;5030365;28;20266;-69
2024/02/24 04:49:09;;;;;;;2.37;1.00;;;;;;;-146.29;100.00;59205.81;5029756;28;20187;-69
2024/02/24 04:55:33;;;;;;;1.20;0.90;;;;;;;-146.29;100.00;59205.81;5026395;28;20341;-68
2024/02/24 04:57:58;;;;;;;2.50;1.10;;;;;;;-146.29;100.00;59205.81;5023079;28;20450;-69
2024/02/24 05:00:25;;;;;;;1.37;0.90;;;;;;;-146.29;100.00;59205.81;5037408;28;20936;-71
2024/02/24 05:02:50;;;;;;;1.03;0.90;;;;;;;-146.29;100.00;59205.81;5033087;28;20299;-68
2024/02/24 05:05:16;;;;;;;2.00;1.20;;;;;;;-146.29;100.00;59205.81;5036418;28;20517;-69
2024/02/24 05:07:41;;;;;;;1.30;1.00;;;;;;;-146.29;100.00;59205.81;5036163;28;20190;-70
2024/02/24 05:10:07;;;;;;;1.10;0.90;;;;;;;-146.29;100.00;59205.81;5029034;28;20263;-70
2024/02/24 05:12:33;;;;;;;1.60;1.17;;;;;;;-146.29;100.00;59205.81;5033817;28;20184;-70
2024/02/24 05:14:58;;;;;;;2.77;1.20;;;;;;;-146.29;100.00;59205.81;5028342;28;20224;-69
2024/02/24 05:17:24;;;;;;;1.73;1.10;;;;;;;-146.29;100.00;59205.81;5035539;28;20617;-70
2024/02/24 05:19:50;;;;;;;1.70;1.17;;;;;;;-146.29;100.00;59205.81;5038702;28;20191;-69
2024/02/24 05:22:15;;;;;;;5.63;1.30;;;;;;;-146.29;100.00;59205.81;5033090;28;20509;-70
2024/02/24 05:24:41;;;;;;;1.60;1.10;;;;;;;-146.29;100.00;59205.81;5036093;28;20240;-69
2024/02/24 05:27:07;;;;;;;2.37;1.37;;;;;;;-146.29;100.00;59205.81;5027431;28;20179;-69
2024/02/24 05:29:32;;;;;;;1.20;0.87;;;;;;;-146.29;100.00;59205.81;5043712;28;20433;-70
2024/02/24 05:31:58;;;;;;;1.43;0.90;;;;;;;-146.29;100.00;59205.81;5029070;28;20188;-69
2024/02/24 05:34:23;;;;;;;1.60;1.27;;;;;;;-146.29;100.00;59205.81;5027276;28;20212;-69
2024/02/24 05:36:49;;;;;;;2.13;1.20;;;;;;;-146.29;100.00;59205.81;5027740;28;20836;-70
2024/02/24 05:39:14;;;;;;;2.27;1.20;;;;;;;-146.29;100.00;59205.81;5035098;28;20187;-69
2024/02/24 05:41:40;;;;;;;1.73;1.17;;;;;;;-146.29;100.00;59205.81;5035560;28;20211;-69
2024/02/24 05:44:05;;;;;;;2.00;1.30;;;;;;;-146.29;100.00;59205.81;5038000;28;20203;-69
2024/02/24 05:46:31;;;;;;;1.57;1.00;;;;;;;-146.29;100.00;59205.81;5046282;28;20187;-68
2024/02/24 05:48:56;;;;;;;1.20;1.03;;;;;;;-146.29;100.00;59205.81;5041288;28;20263;-69
2024/02/24 05:51:21;;;;;;;1.80;1.10;;;;;;;-146.29;100.00;59205.81;5030485;28;20183;-68
2024/02/24 05:53:48;;;;;;;2.10;1.10;;;;;;;-146.29;100.00;59205.81;5033837;28;20211;-69
2024/02/24 05:56:13;;;;;;;3.80;1.50;;;;;;;-146.29;100.00;59205.81;5039308;28;20207;-69
2024/02/24 05:58:39;;;;;;;1.50;1.30;;;;;;;-146.29;100.00;59205.81;5034731;28;20461;-68
2024/02/24 06:01:04;;;;;;;9.97;1.50;;;;;;;-146.29;100.00;59205.81;5038882;28;20555;-69
2024/02/24 06:03:30;;;;;;;2.80;1.10;;;;;;;-146.29;100.00;59205.81;5041723;28;20230;-70
2024/02/24 06:05:55;;;;;;;1.40;1.30;;;;;;;-146.29;100.00;59205.81;5041618;28;20259;-70
2024/02/24 06:08:20;;;;;;;1.93;1.00;;;;;;;-146.29;100.00;59205.81;5034569;28;20653;-70
2024/02/24 06:10:49;;;;;;;3.03;1.10;;;;;;;-146.29;100.00;59205.81;5030356;28;20567;-69
2024/02/24 06:13:14;;;;;;;5.33;1.57;;;;;;;-146.29;100.00;59205.81;5030095;28;20212;-70
2024/02/24 06:15:40;;;;;;;2.90;1.67;;;;;;;-146.29;100.00;59205.81;5042955;28;20461;-69
2024/02/24 06:18:05;;;;;;;2.20;1.30;;;;;;;-146.29;100.00;59205.81;5030495;28;20180;-68
2024/02/24 06:20:31;;;;;;;1.50;1.40;;;;;;;-146.29;100.00;59205.81;5041087;28;20206;-68
2024/02/24 06:22:56;;;;;;;2.60;1.40;;;;;;;-146.29;100.00;59205.81;5037165;28;20200;-69
2024/02/24 06:25:22;;;;;;;2.70;1.70;;;;;;;-146.29;100.00;59205.81;5032263;28;20235;-69
2024/02/24 06:27:47;;;;;;;2.97;1.67;;;;;;;-146.29;100.00;59205.81;5032942;28;20698;-70
2024/02/24 06:30:13;;;;;;;2.57;1.70;;;;;;;-146.29;100.00;59205.81;5031315;28;20673;-69
2024/02/24 06:32:39;;;;;;;2.13;1.33;;;;;;;-146.29;100.00;59205.81;5037045;28;20294;-69
2024/02/24 06:35:04;;;;;;;2.20;1.53;;;;;;;-146.29;100.00;59205.81;5040732;28;20242;-69
2024/02/24 06:37:30;;;;;;;2.50;1.40;;;;;;;-146.29;100.00;59205.81;5032482;28;20184;-68
2024/02/24 06:39:55;;;;;;;3.47;1.53;;;;;;;-146.29;100.00;59205.81;5031580;28;20184;-68
2024/02/24 06:42:21;;;;;;;2.47;1.70;;;;;;;-146.29;100.00;59205.81;5038567;28;20828;-68
2024/02/24 06:44:46;;;;;;;2.03;1.50;;;;;;;-146.29;100.00;59205.81;5037970;28;20835;-69
2024/02/24 06:47:12;;;;;;;2.97;1.40;;;;;;;-146.29;100.00;59205.81;5025779;28;20255;-68
2024/02/24 06:49:37;;;;;;;2.67;1.30;;;;;;;-146.29;100.00;59205.81;5025424;28;20183;-70
2024/02/24 06:52:03;;;;;;;1.30;1.10;;;;;;;-146.29;100.00;59205.81;5033478;28;20195;-69
2024/02/24 06:54:29;;;;;;;1.73;1.27;;;;;;;-146.29;100.00;59205.81;5031786;28;20195;-68
2024/02/24 06:56:54;;;;;;;2.03;1.30;;;;;;;-146.29;100.00;59205.81;5033849;28;20426;-68
2024/02/24 06:59:20;;;;;;;2.60;1.50;;;;;;;-146.29;100.00;59205.81;5029110;28;20183;-69
2024/02/24 07:01:45;;;;;;;1.70;1.60;;;;;;;-146.29;100.00;59205.81;5030211;28;20693;-71
2024/02/24 07:04:11;;;;;;;3.60;1.60;;;;;;;-146.29;100.00;59205.81;5043132;28;20304;-69
2024/02/24 07:06:37;;;;;;;2.20;1.37;;;;;;;-146.29;100.00;59205.81;5029841;28;20218;-68
2024/02/24 07:09:03;;;;;;;4.43;1.50;;;;;;;-146.29;100.00;59205.81;5035328;28;20183;-70
2024/02/24 07:11:28;;;;;;;2.13;1.53;;;;;;;-146.29;100.00;59205.81;5029858;28;20192;-68
2024/02/24 07:13:53;;;;;;;2.67;1.60;;;;;;;-146.29;100.00;59205.81;5029832;28;20315;-68
2024/02/24 07:16:19;;;;;;;2.80;1.87;;;;;;;-146.29;100.00;59205.81;5029938;28;20648;-69
2024/02/24 07:18:44;;;;;;;4.80;1.40;;;;;;;-146.29;100.00;59205.81;5029987;28;20704;-69
2024/02/24 07:21:10;;;;;;;3.97;1.80;;;;;;;-146.29;100.00;59205.81;5034470;28;20279;-68
2024/02/24 07:23:35;;;;;;;3.40;1.80;;;;;;;-146.29;100.00;59205.81;5035843;28;20204;-69
2024/02/24 07:26:01;;;;;;;1.77;1.40;;;;;;;-146.29;100.00;59205.81;5030039;28;20211;-68
2024/02/24 07:28:28;;;;;;;1.50;1.20;;;;;;;-146.29;100.00;59205.81;5034135;28;20176;-68
2024/02/24 07:30:54;;;;;;;3.23;1.53;;;;;;;-146.29;100.00;59205.81;5036668;28;20429;-69
2024/02/24 07:33:20;;;;;;;2.03;1.40;;;;;;;-146.29;100.00;59205.81;5029283;28;20450;-68
2024/02/24 07:35:45;;;;;;;1.40;1.20;;;;;;;-146.29;100.00;59205.81;5041185;28;20508;-69
2024/02/24 07:38:11;;;;;;;1.47;1.23;;;;;;;-146.29;100.00;59205.81;5033724;28;20513;-68
2024/02/24 07:40:36;;;;;;;2.27;1.20;;;;;;;-146.29;100.00;59205.81;5030798;28;20676;-68
2024/02/24 07:43:02;;;;;;;1.30;1.00;;;;;;;-146.29;100.00;59205.81;5031829;28;20278;-68
2024/02/24 07:45:27;;;;;;;1.17;1.00;;;;;;;-146.29;100.00;59205.81;5032703;28;20192;-68
2024/02/24 07:47:56;;;;;;;1.20;0.87;;;;;;;-146.29;100.00;59205.81;5029443;28;20556;-69
2024/02/24 07:50:21;;;;;;;1.03;0.90;;;;;;;-146.29;100.00;59205.81;5033087;28;20179;-68
2024/02/24 07:52:47;;;;;;;1.07;0.97;;;;;;;-146.29;100.00;59205.81;5028640;28;20418;-69
2024/02/24 07:55:12;;;;;;;2.10;1.20;;;;;;;-146.29;100.00;59205.81;5035952;28;20677;-69
2024/02/24 07:57:38;;;;;;;1.90;0.80;;;;;;;-146.29;100.00;59205.81;5033775;28;20252;-69
2024/02/24 08:00:05;;;;;;;1.83;1.20;;;;;;;-146.29;100.00;59205.81;5034174;28;20179;-69
2024/02/24 08:02:31;;;;;;;6.30;0.87;;;;;;;-146.29;100.00;59205.81;5029522;28;20175;-68
2024/02/24 08:04:57;;;;;;;2.10;0.80;;;;;;;-146.29;100.00;59205.81;5033290;28;20434;-68
2024/02/24 08:07:22;;;;;;;1.10;1.00;;;;;;;-146.29;100.00;59205.81;5035504;28;20425;-68
2024/02/24 08:09:48;;;;;;;1.10;0.80;;;;;;;-146.29;100.00;59205.81;5028325;28;20750;-69
2024/02/24 08:12:13;;;;;;;1.00;0.70;;;;;;;-146.29;100.00;59205.81;5029107;28;20176;-68
2024/02/24 08:14:38;;;;;;;1.97;0.90;;;;;;;-146.29;100.00;59205.81;5029662;28;20583;-70
2024/02/24 08:17:04;;;;;;;0.90;0.80;;;;;;;-146.29;100.00;59205.81;5028849;28;20254;-68
2024/02/24 08:19:33;;;;;;;1.90;1.07;;;;;;;-146.29;100.00;59205.81;5028562;28;20263;-68
2024/02/24 08:22:01;;;;;;;2.67;1.40;;;;;;;-146.29;100.00;59205.81;5036850;28;20710;-67
2024/02/24 08:24:27;;;;;;;1.63;1.07;;;;;;;-146.29;100.00;59205.81;5030729;28;20496;-70
2024/02/24 08:26:52;;;;;;;2.60;1.17;;;;;;;-146.29;100.00;59205.81;5029048;28;20435;-70
2024/02/24 08:29:18;;;;;;;3.00;1.70;;;;;;;-146.29;100.00;59205.81;5037076;28;20225;-70
2024/02/24 08:31:43;;;;;;;1.80;1.47;;;;;;;-146.29;100.00;59205.81;5028727;28;20266;-67
2024/02/24 08:34:09;;;;;;;6.83;2.07;;;;;;;-146.29;100.00;59205.81;5028711;28;20294;-69
2024/02/24 08:36:34;;;;;;;1.73;1.53;;;;;;;-146.29;100.00;59205.81;5028218;28;20183;-68
2024/02/24 08:39:00;;;;;;;1.20;0.90;;;;;;;-146.29;100.00;59205.81;5029186;28;20184;-70
2024/02/24 08:41:26;;;;;;;2.23;1.40;;;;;;;-146.29;100.00;59205.81;5028445;28;20193;-68
2024/02/24 08:43:52;;;;;;;3.33;1.83;;;;;;;-146.29;100.00;59205.81;5032732;28;20258;-68
2024/02/24 08:46:19;;;;;;;2.73;1.67;;;;;;;-146.29;100.00;59205.81;5030149;28;20810;-69
2024/02/24 08:48:45;;;;;;;1.10;0.70;;;;;;;-146.29;100.00;59205.81;5036187;28;20426;-68
2024/02/24 08:51:10;;;;;;;1.53;1.10;;;;;;;-146.29;100.00;59205.81;5028650;28;21185;-68
2024/02/24 08:53:36;;;;;;;2.10;0.90;;;;;;;-146.29;100.00;59205.81;5033705;28;20508;-68
2024/02/24 08:56:01;;;;;;;4.90;0.90;;;;;;;-146.29;100.00;59205.81;5028499;28;20184;-68
2024/02/24 08:58:28;;;;;;;0.93;0.80;;;;;;;-146.29;100.00;59205.81;5027964;28;20187;-67
2024/02/24 09:00:56;;;;;;;2.10;0.80;;;;;;;-146.29;100.00;59205.81;5032664;28;20207;-68
2024/02/24 09:03:21;;;;;;;1.67;1.13;;;;;;;-146.29;100.00;59205.81;5028400;28;20531;-66
2024/02/24 09:05:47;;;;;;;1.20;0.80;;;;;;;-146.29;100.00;59205.81;5036546;28;20416;-68
2024/02/24 09:08:12;;;;;;;2.23;0.70;;;;;;;-146.29;100.00;59205.81;5027436;28;20728;-69
2024/02/24 09:10:37;;;;;;;1.20;0.80;;;;;;;-146.29;100.00;59205.81;5029404;28;20342;-69
2024/02/24 09:13:03;;;;;;;1.17;0.70;;;;;;;-146.29;100.00;59205.81;5021356;28;20210;-68
2024/02/24 09:15:28;;;;;;;1.13;0.80;;;;;;;-146.29;100.00;59205.81;5029771;28;20179;-68
2024/02/24 09:17:55;;;;;;;1.10;0.70;;;;;;;-146.29;100.00;59205.81;5035950;28;20180;-69
2024/02/24 09:20:21;;;;;;;1.73;1.20;;;;;;;-146.29;100.00;59205.81;5034734;28;20186;-69
2024/02/24 09:22:48;;;;;;;0.90;0.70;;;;;;;-146.29;100.00;59205.81;5039772;28;20422;-69
2024/02/24 09:25:16;;;;;;;0.87;0.60;;;;;;;-146.29;100.00;59205.81;5038724;28;20476;-70
2024/02/24 09:27:42;;;;;;;1.20;0.80;;;;;;;-146.29;100.00;59205.81;5045293;28;20425;-70
2024/02/24 09:30:10;;;;;;;1.20;0.90;;;;;;;-146.29;100.00;59205.81;5032118;28;20467;-70
2024/02/24 09:32:44;;;;;;;2.03;1.17;;;;;;;-146.29;100.00;59205.81;5032896;28;20507;-69
2024/02/24 09:35:10;;;;;;;1.80;0.80;;;;;;;-146.29;100.00;59205.81;5033794;28;20449;-70
2024/02/24 09:37:35;;;;;;;1.43;1.00;;;;;;;-146.29;100.00;59205.81;5031559;28;20422;-69
2024/02/24 09:40:03;;;;;;;3.33;0.93;;;;;;;-146.29;100.00;59205.81;5030978;28;20210;-69
2024/02/24 09:42:29;;;;;;;1.20;0.90;;;;;;;-146.29;100.00;59205.81;5037951;28;20560;-70
2024/02/24 09:45:04;;;;;;;2.27;0.80;;;;;;;-146.29;100.00;59205.81;5033740;28;20437;-69
2024/02/24 09:47:30;;;;;;;1.00;0.60;;;;;;;-146.29;100.00;59205.81;5039846;28;20694;-69
2024/02/24 09:50:00;;;;;;;1.23;0.70;;;;;;;-146.29;100.00;59205.81;5034502;28;20414;-69
2024/02/24 09:52:25;;;;;;;1.07;0.50;;;;;;;-146.29;100.00;59205.81;5038175;28;20274;-69
2024/02/24 09:54:50;;;;;;;1.87;0.80;;;;;;;-146.29;100.00;59205.81;5029467;28;20932;-71
2024/02/24 09:57:19;;;;;;;1.20;0.77;;;;;;;-146.29;100.00;59205.81;5026074;28;20180;-69
2024/02/24 09:59:45;;;;;;;1.87;0.90;;;;;;;-146.29;100.00;59205.81;5029282;28;20187;-70
2024/02/24 10:02:12;;;;;;;0.90;0.50;;;;;;;-146.29;100.00;59205.81;5030963;28;20419;-69
2024/02/24 10:04:37;;;;;;;1.20;0.63;;;;;;;-146.29;100.00;59205.81;5040421;28;20474;-69
2024/02/24 10:07:03;;;;;;;1.50;0.70;;;;;;;-146.29;100.00;59205.81;5031191;28;20465;-71
2024/02/24 10:09:28;;;;;;;0.90;0.60;;;;;;;-146.29;100.00;59205.81;5034366;28;20194;-70
2024/02/24 10:11:54;;;;;;;1.47;0.87;;;;;;;-146.29;100.00;59205.81;5031232;28;20684;-70
2024/02/24 10:14:20;;;;;;;2.10;1.67;;;;;;;-146.29;100.00;59205.81;5037324;28;20654;-71
2024/02/24 10:16:52;;;;;;;1.83;1.40;;;;;;;-146.29;100.00;59205.81;5036627;28;20190;-71
2024/02/24 10:19:17;;;;;;;1.20;1.10;;;;;;;-146.29;100.00;59205.81;5028329;28;20422;-71
2024/02/24 10:21:42;;;;;;;5.03;1.07;;;;;;;-146.29;100.00;59205.81;5031270;28;20503;-72
2024/02/24 10:24:08;;;;;;;1.30;0.70;;;;;;;-146.29;100.00;59205.81;5028803;28;20319;-70
2024/02/24 10:26:34;;;;;;;1.97;0.60;;;;;;;-146.29;100.00;59205.81;5028925;28;20184;-71
2024/02/24 10:29:04;;;;;;;1.20;0.70;;;;;;;-146.29;100.00;59205.81;5022923;28;20180;-72
2024/02/24 10:31:30;;;;;;;1.27;0.70;;;;;;;-146.29;100.00;59205.81;5031048;28;20184;-69
2024/02/24 10:33:56;;;;;;;1.93;0.70;;;;;;;-146.29;100.00;59205.81;5027337;28;20519;-70
2024/02/24 10:36:22;;;;;;;3.27;0.60;;;;;;;-146.29;100.00;59205.81;5045410;28;20832;-71
2024/02/24 10:38:51;;;;;;;1.47;0.70;;;;;;;-146.29;100.00;59205.81;5030733;28;20218;-71
2024/02/24 10:41:18;;;;;;;1.43;1.10;;;;;;;-146.29;100.00;59205.81;5026842;28;20187;-71
2024/02/24 10:43:46;;;;;;;0.87;0.60;;;;;;;-146.29;100.00;59205.81;5028459;28;20442;-72
2024/02/24 10:46:11;;;;;;;3.17;1.00;;;;;;;-146.29;100.00;59205.81;5032593;28;20434;-71
2024/02/24 10:48:37;;;;;;;3.67;0.90;;;;;;;-146.29;100.00;59205.81;5032153;28;20495;-70
2024/02/24 10:51:03;;;;;;;1.30;0.90;;;;;;;-146.29;100.00;59205.81;5030532;28;20200;-71
2024/02/24 10:53:31;;;;;;;3.33;0.83;;;;;;;-146.29;100.00;59205.81;5014571;28;20207;-71
2024/02/24 10:56:01;;;;;;;1.73;0.70;;;;;;;-146.29;100.00;59205.81;5027049;28;20437;-73
2024/02/24 10:58:27;;;;;;;1.23;0.70;;;;;;;-146.29;100.00;59205.81;5029603;28;20481;-70
2024/02/24 11:00:53;;;;;;;1.83;0.63;;;;;;;-146.29;100.00;59205.81;5042628;28;20434;-71
2024/02/24 11:03:22;;;;;;;1.00;0.70;;;;;;;-146.29;100.00;59205.81;5028136;28;20217;-70
2024/02/24 11:05:48;;;;;;;1.00;0.60;;;;;;;-146.29;100.00;59205.81;5021621;28;20537;-71
2024/02/24 11:08:48;;;;;;;2.17;0.83;;;;;;;-146.29;100.00;59205.81;5028330;28;20505;-71